Time;durP1;ratioP1;P1;durP2;ratioP2;P2;SDS_P1;SDS_P2;PMS_P1;PMS_P2;Temp;Humidity;BMP_temperature;BMP_pressure;BME280_temperature;BME280_humidity;BME280_pressure;Samples;Min_cycle;Max_cycle;Signal;HPM_P1;HPM_P2
2023/12/09 00:01:16;;;;;;;104.13;31.50;;;-2.70;99.90;;;;;;4447236;28;661828;-71
2023/12/09 00:04:03;;;;;;;122.93;32.80;;;-2.70;99.90;;;;;;4428537;27;661933;-71
2023/12/09 00:06:51;;;;;;;97.57;27.67;;;-2.70;99.90;;;;;;4444212;28;662828;-71
2023/12/09 00:09:38;;;;;;;115.03;31.73;;;-2.70;99.90;;;;;;4442032;27;660822;-71
2023/12/09 00:12:27;;;;;;;116.27;29.63;;;-2.70;99.90;;;;;;4455887;28;662489;-71
2023/12/09 00:15:14;;;;;;;119.10;34.37;;;-2.70;99.90;;;;;;4422804;28;661843;-71
2023/12/09 00:18:01;;;;;;;108.87;31.63;;;-2.70;99.90;;;;;;4449733;28;661866;-71
2023/12/09 00:20:48;;;;;;;118.10;32.10;;;-2.70;99.90;;;;;;4425445;27;662031;-71
2023/12/09 00:23:36;;;;;;;112.03;32.43;;;-2.70;99.90;;;;;;4463685;27;662441;-71
2023/12/09 00:26:23;;;;;;;110.40;30.33;;;-2.70;99.90;;;;;;4431974;27;662362;-71
2023/12/09 00:29:12;;;;;;;112.53;31.02;;;-2.80;99.90;;;;;;4446331;27;662958;-71
2023/12/09 00:31:59;;;;;;;106.40;30.30;;;-2.80;99.90;;;;;;4418757;28;662419;-71
2023/12/09 00:34:46;;;;;;;129.50;29.57;;;-2.80;99.90;;;;;;4454631;27;661953;-71
2023/12/09 00:37:33;;;;;;;120.43;33.40;;;-2.80;99.90;;;;;;4435405;27;662599;-71
2023/12/09 00:40:21;;;;;;;129.70;35.73;;;-2.80;99.90;;;;;;4455040;28;662135;-71
2023/12/09 00:43:08;;;;;;;107.80;30.40;;;-2.90;99.90;;;;;;4427970;27;662240;-70
2023/12/09 00:45:57;;;;;;;104.10;28.73;;;-2.80;99.90;;;;;;4458870;27;662662;-71
2023/12/09 00:48:44;;;;;;;132.20;36.13;;;-2.80;99.90;;;;;;4435187;28;662743;-71
2023/12/09 00:51:32;;;;;;;105.47;30.00;;;-2.90;99.90;;;;;;4456782;27;661036;-71
2023/12/09 00:54:19;;;;;;;104.60;28.30;;;-2.90;99.90;;;;;;4427965;27;662843;-71
2023/12/09 00:57:06;;;;;;;106.53;26.67;;;-2.90;99.90;;;;;;4452990;28;661949;-70
2023/12/09 00:59:53;;;;;;;96.87;27.93;;;-2.90;99.90;;;;;;4436652;28;661740;-71
2023/12/09 01:02:42;;;;;;;98.83;26.70;;;-2.90;99.90;;;;;;4454744;27;662151;-71
2023/12/09 01:05:29;;;;;;;102.07;26.53;;;-2.90;99.90;;;;;;4431428;27;661610;-71
2023/12/09 01:08:16;;;;;;;97.43;28.20;;;-2.90;99.90;;;;;;4456713;27;661467;-71
2023/12/09 01:11:04;;;;;;;106.67;28.10;;;-3.00;99.90;;;;;;4435893;28;660659;-71
2023/12/09 01:13:51;;;;;;;114.63;30.50;;;-3.00;99.90;;;;;;4447412;28;662015;-71
2023/12/09 01:16:38;;;;;;;103.03;27.00;;;-3.00;99.90;;;;;;4427064;28;661604;-70
2023/12/09 01:19:27;;;;;;;112.07;27.00;;;-3.00;99.90;;;;;;4452411;28;662530;-71
2023/12/09 01:22:14;;;;;;;116.40;28.77;;;-3.00;99.90;;;;;;4429881;28;662331;-71
2023/12/09 01:25:01;;;;;;;98.73;28.47;;;-3.10;99.90;;;;;;4448089;28;661761;-71
2023/12/09 01:27:48;;;;;;;91.37;26.83;;;-3.10;99.90;;;;;;4436711;28;661939;-71
2023/12/09 01:30:35;;;;;;;107.37;29.17;;;-3.00;99.90;;;;;;4454842;28;661659;-71
2023/12/09 01:33:22;;;;;;;79.73;24.47;;;-3.00;99.90;;;;;;4427754;28;661354;-71
2023/12/09 01:36:11;;;;;;;103.50;26.83;;;-3.00;99.90;;;;;;4454715;28;661073;-71
2023/12/09 01:38:58;;;;;;;97.13;27.30;;;-3.00;99.90;;;;;;4431430;28;661811;-71
2023/12/09 01:41:45;;;;;;;105.17;28.80;;;-3.00;99.90;;;;;;4449044;28;661494;-71
2023/12/09 01:44:32;;;;;;;105.43;29.30;;;-3.00;99.90;;;;;;4426951;28;661872;-71
2023/12/09 01:47:20;;;;;;;98.33;27.07;;;-3.00;99.90;;;;;;4452202;28;663740;-70
2023/12/09 01:50:08;;;;;;;84.80;24.70;;;-3.00;99.90;;;;;;4452027;28;661082;-70
2023/12/09 01:52:56;;;;;;;101.03;28.60;;;-3.00;99.90;;;;;;4461967;28;661520;-71
2023/12/09 01:55:43;;;;;;;101.70;27.48;;;-3.10;99.90;;;;;;4424694;28;661856;-71
2023/12/09 01:58:31;;;;;;;98.60;27.80;;;-3.10;99.90;;;;;;4448836;28;662227;-71
2023/12/09 02:01:18;;;;;;;89.30;25.90;;;-3.10;99.90;;;;;;4453741;28;660856;-71
2023/12/09 02:04:05;;;;;;;92.33;27.60;;;-3.20;99.90;;;;;;4468377;28;660769;-71
2023/12/09 02:06:52;;;;;;;77.93;24.43;;;-3.10;99.90;;;;;;4427169;28;661260;-70
2023/12/09 02:09:42;;;;;;;83.10;27.20;;;-3.10;99.90;;;;;;4445016;28;661438;-71
2023/12/09 02:15:12;;;;;;;123.67;33.60;;;-3.10;99.90;;;;;;4927816;27;131876;-71
2023/12/09 02:18:01;;;;;;;112.20;30.87;;;-3.10;99.90;;;;;;4404529;28;654189;-71
2023/12/09 02:20:49;;;;;;;146.40;34.03;;;-3.10;99.90;;;;;;4399028;28;653663;-71
2023/12/09 02:23:37;;;;;;;105.53;27.93;;;-3.20;99.90;;;;;;4430672;28;653155;-70
2023/12/09 02:26:26;;;;;;;95.73;26.70;;;-3.10;99.90;;;;;;4389708;28;653961;-70
2023/12/09 02:29:13;;;;;;;94.43;27.30;;;-3.20;99.90;;;;;;4403384;28;652581;-70
2023/12/09 02:32:02;;;;;;;97.07;26.60;;;-3.30;99.90;;;;;;4428152;28;654455;-71
2023/12/09 02:34:50;;;;;;;80.70;25.00;;;-3.30;99.90;;;;;;4399619;28;653824;-71
2023/12/09 02:37:38;;;;;;;88.33;27.20;;;-3.30;99.90;;;;;;4438249;28;654146;-70
2023/12/09 02:40:27;;;;;;;99.37;27.93;;;-3.30;99.90;;;;;;4448792;28;654301;-71
2023/12/09 02:43:14;;;;;;;135.07;31.63;;;-3.30;99.90;;;;;;4426422;28;654668;-71
2023/12/09 02:46:01;;;;;;;107.60;28.33;;;-3.30;99.90;;;;;;4443804;28;655453;-71
2023/12/09 02:48:48;;;;;;;94.67;28.70;;;-3.30;99.90;;;;;;4423824;28;655612;-70
2023/12/09 02:51:35;;;;;;;90.77;27.93;;;-3.10;99.90;;;;;;4450307;28;654957;-71
2023/12/09 02:54:22;;;;;;;89.10;25.55;;;-3.20;99.90;;;;;;4420508;28;654608;-70
2023/12/09 02:57:11;;;;;;;92.70;28.43;;;-3.20;99.90;;;;;;4444767;28;654937;-70
2023/12/09 02:59:58;;;;;;;84.95;28.00;;;-3.30;99.90;;;;;;4425520;28;655115;-70
2023/12/09 03:02:45;;;;;;;126.53;34.85;;;-3.30;99.90;;;;;;4452460;28;655748;-71
2023/12/09 03:05:33;;;;;;;103.73;30.37;;;-3.30;99.90;;;;;;4427526;28;656078;-70
2023/12/09 03:08:20;;;;;;;99.53;28.97;;;-3.40;99.90;;;;;;4439502;28;657437;-70
2023/12/09 03:11:07;;;;;;;88.03;27.03;;;-3.40;99.90;;;;;;4434901;28;654674;-71
2023/12/09 03:13:56;;;;;;;91.37;27.57;;;-3.50;99.90;;;;;;4450768;28;654928;-71
2023/12/09 03:16:43;;;;;;;90.93;27.77;;;-3.40;99.90;;;;;;4424716;28;654615;-70
2023/12/09 03:19:31;;;;;;;120.20;33.47;;;-3.50;99.90;;;;;;4444256;28;655633;-70
2023/12/09 03:22:18;;;;;;;95.20;26.70;;;-3.40;99.90;;;;;;4424795;28;655476;-70
2023/12/09 03:25:06;;;;;;;91.90;26.67;;;-3.40;99.90;;;;;;4445922;28;656645;-70
2023/12/09 03:27:53;;;;;;;101.53;28.97;;;-3.40;99.90;;;;;;4408953;28;654601;-70
2023/12/09 03:30:42;;;;;;;90.83;27.37;;;-3.50;99.90;;;;;;4439376;28;656383;-70
2023/12/09 03:33:29;;;;;;;83.50;26.93;;;-3.40;99.90;;;;;;4412354;28;655336;-71
2023/12/09 03:36:16;;;;;;;86.50;27.87;;;-3.40;99.90;;;;;;4423736;28;654355;-71
2023/12/09 03:39:03;;;;;;;91.63;28.23;;;-3.40;99.90;;;;;;4416811;28;656394;-70
2023/12/09 03:41:50;;;;;;;91.15;25.75;;;-3.40;99.90;;;;;;4433780;28;656328;-70
2023/12/09 03:44:38;;;;;;;93.13;28.13;;;-3.40;99.90;;;;;;4406155;28;654369;-70
2023/12/09 03:47:26;;;;;;;98.70;29.90;;;-3.50;99.90;;;;;;4425921;28;655970;-70
2023/12/09 03:50:13;;;;;;;86.60;26.70;;;-3.50;99.90;;;;;;4415310;28;654205;-70
2023/12/09 03:53:01;;;;;;;85.80;26.13;;;-3.50;99.90;;;;;;4434363;28;654933;-70
2023/12/09 03:55:49;;;;;;;79.00;25.77;;;-3.50;99.90;;;;;;4412020;28;654432;-70
2023/12/09 03:58:36;;;;;;;87.67;26.67;;;-3.50;99.90;;;;;;4441516;28;655183;-71
2023/12/09 04:01:24;;;;;;;79.30;26.10;;;-3.50;99.90;;;;;;4417653;28;654805;-71
2023/12/09 04:04:13;;;;;;;81.30;26.07;;;-3.60;99.90;;;;;;4437177;28;654736;-71
2023/12/09 04:07:00;;;;;;;93.17;28.80;;;-3.60;99.90;;;;;;4408991;28;655308;-70
2023/12/09 04:09:47;;;;;;;82.83;27.20;;;-3.70;99.90;;;;;;4424253;28;654412;-70
2023/12/09 04:12:35;;;;;;;82.07;27.73;;;-3.70;99.90;;;;;;4443193;28;655561;-71
2023/12/09 04:15:22;;;;;;;82.50;25.80;;;-3.70;99.90;;;;;;4431429;28;654482;-70
2023/12/09 04:18:09;;;;;;;77.28;27.45;;;-3.80;99.90;;;;;;4429535;28;654646;-70
2023/12/09 04:20:58;;;;;;;84.40;27.40;;;-3.80;99.90;;;;;;4430255;28;654090;-71
2023/12/09 04:23:46;;;;;;;80.47;25.90;;;-3.80;99.90;;;;;;4413442;28;654378;-70
2023/12/09 04:26:33;;;;;;;82.73;27.30;;;-3.80;99.90;;;;;;4417610;28;654161;-70
2023/12/09 04:29:20;;;;;;;81.10;25.63;;;-3.80;99.90;;;;;;4443632;28;655207;-71
2023/12/09 04:32:07;;;;;;;88.90;26.73;;;-3.80;99.90;;;;;;4424100;28;654311;-71
2023/12/09 04:34:55;;;;;;;77.87;25.90;;;-3.80;99.90;;;;;;4426841;28;655421;-70
2023/12/09 04:37:43;;;;;;;68.80;24.23;;;-3.90;99.90;;;;;;4440292;28;654419;-71
2023/12/09 04:40:30;;;;;;;84.13;24.95;;;-4.00;99.90;;;;;;4405858;28;655255;-71
2023/12/09 04:43:18;;;;;;;84.40;24.50;;;-3.90;99.90;;;;;;4411715;28;654679;-70
2023/12/09 04:46:05;;;;;;;74.70;24.87;;;-3.90;99.90;;;;;;4439562;28;655525;-70
2023/12/09 04:48:52;;;;;;;78.83;25.17;;;-4.00;99.90;;;;;;4422892;28;654527;-70
2023/12/09 04:51:40;;;;;;;70.10;21.93;;;-4.00;99.90;;;;;;4434680;28;655114;-70
2023/12/09 04:54:28;;;;;;;72.40;24.23;;;-3.90;99.90;;;;;;4426284;28;655290;-71
2023/12/09 04:57:15;;;;;;;72.17;24.20;;;-4.00;99.90;;;;;;4413209;28;654865;-71
2023/12/09 05:00:03;;;;;;;81.32;26.17;;;-4.10;99.90;;;;;;4416963;28;654083;-70
2023/12/09 05:02:50;;;;;;;85.23;28.50;;;-4.10;99.90;;;;;;4430494;28;656585;-70
2023/12/09 05:05:38;;;;;;;76.63;25.63;;;-4.10;99.90;;;;;;4424001;28;655987;-69
2023/12/09 05:08:25;;;;;;;83.57;26.43;;;-4.10;99.90;;;;;;4441962;28;655732;-71
2023/12/09 05:11:14;;;;;;;82.82;25.98;;;-4.20;99.90;;;;;;4425293;28;655795;-71
2023/12/09 05:14:01;;;;;;;84.40;26.40;;;-4.20;99.90;;;;;;4435630;28;656478;-71
2023/12/09 05:16:48;;;;;;;75.60;25.60;;;-4.20;99.90;;;;;;4405558;28;655395;-70
2023/12/09 05:19:35;;;;;;;86.50;27.37;;;-4.20;99.90;;;;;;4436303;28;655571;-71
2023/12/09 05:22:22;;;;;;;71.97;23.15;;;-4.20;99.90;;;;;;4420009;28;655715;-70
2023/12/09 05:25:10;;;;;;;75.97;24.23;;;-4.20;99.90;;;;;;4429559;28;656645;-70
2023/12/09 05:28:00;;;;;;;78.47;25.33;;;-4.30;99.90;;;;;;4411119;28;655910;-70
2023/12/09 05:30:48;;;;;;;76.10;24.40;;;-4.20;99.90;;;;;;4415711;28;655510;-70
2023/12/09 05:33:35;;;;;;;82.27;25.67;;;-4.10;99.90;;;;;;4431392;28;656312;-71
2023/12/09 05:36:23;;;;;;;83.07;28.27;;;-4.20;99.90;;;;;;4414211;28;655543;-71
2023/12/09 05:39:10;;;;;;;85.43;27.10;;;-4.10;99.90;;;;;;4438069;28;656863;-71
2023/12/09 05:41:57;;;;;;;86.20;26.77;;;-4.10;99.90;;;;;;4415453;28;655750;-71
2023/12/09 05:44:46;;;;;;;81.17;26.30;;;-4.10;99.90;;;;;;4439057;28;656179;-71
2023/12/09 05:47:34;;;;;;;76.87;24.60;;;-4.20;99.90;;;;;;4407397;28;656347;-71
2023/12/09 05:50:21;;;;;;;78.17;22.63;;;-4.20;99.90;;;;;;4426552;28;656255;-71
2023/12/09 05:53:08;;;;;;;79.28;25.30;;;-4.20;99.90;;;;;;4405912;28;655530;-71
2023/12/09 05:55:56;;;;;;;76.27;25.83;;;-4.10;99.90;;;;;;4430046;28;656038;-71
2023/12/09 05:58:43;;;;;;;80.73;25.30;;;-4.10;99.90;;;;;;4410775;28;656425;-71
2023/12/09 06:01:33;;;;;;;75.17;25.20;;;-4.00;99.90;;;;;;4432128;28;656982;-71
2023/12/09 06:04:20;;;;;;;80.07;24.70;;;-4.00;99.90;;;;;;4402824;28;656151;-70
2023/12/09 06:07:07;;;;;;;73.40;24.42;;;-4.00;99.90;;;;;;4408201;28;656284;-71
2023/12/09 06:09:55;;;;;;;73.77;25.20;;;-4.00;99.90;;;;;;4433969;28;656897;-71
2023/12/09 06:12:42;;;;;;;74.50;25.00;;;-4.10;99.90;;;;;;4426822;28;655904;-71
2023/12/09 06:15:29;;;;;;;84.37;26.97;;;-4.10;99.90;;;;;;4413267;28;656700;-71
2023/12/09 06:18:18;;;;;;;81.27;26.10;;;-4.20;99.90;;;;;;4423975;28;655960;-71
2023/12/09 06:21:05;;;;;;;122.27;39.37;;;-4.30;99.90;;;;;;4407245;28;655992;-71
2023/12/09 06:23:53;;;;;;;93.47;30.98;;;-4.30;99.90;;;;;;4405093;28;656627;-70
2023/12/09 06:26:44;;;;;;;100.33;34.03;;;-4.30;99.90;;;;;;4431076;28;657156;-71
2023/12/09 06:29:31;;;;;;;81.47;25.63;;;-4.30;99.90;;;;;;4401321;28;656951;-71
2023/12/09 06:32:18;;;;;;;79.87;28.03;;;-4.30;99.90;;;;;;4407269;28;655545;-71
2023/12/09 06:35:07;;;;;;;90.33;29.20;;;-4.40;99.90;;;;;;4428054;28;655798;-71
2023/12/09 06:37:55;;;;;;;98.50;33.60;;;-4.30;99.90;;;;;;4408067;28;656041;-71
2023/12/09 06:40:42;;;;;;;108.90;35.80;;;-4.30;99.90;;;;;;4427924;28;655334;-71
2023/12/09 06:43:29;;;;;;;84.57;29.93;;;-4.30;99.90;;;;;;4410713;28;657880;-71
2023/12/09 06:46:16;;;;;;;112.77;36.53;;;-4.40;99.90;;;;;;4424366;28;655958;-71
2023/12/09 06:49:03;;;;;;;114.63;41.07;;;-4.30;99.90;;;;;;4404381;28;656937;-71
2023/12/09 06:51:52;;;;;;;108.73;36.37;;;-4.30;99.90;;;;;;4424087;28;656861;-70
2023/12/09 06:54:39;;;;;;;126.73;41.10;;;-4.30;99.90;;;;;;4402084;28;658096;-71
2023/12/09 06:57:27;;;;;;;88.10;29.33;;;-4.40;99.90;;;;;;4426191;28;658267;-71
2023/12/09 07:00:15;;;;;;;100.27;33.97;;;-4.50;99.90;;;;;;4406554;28;657504;-71
2023/12/09 07:03:03;;;;;;;100.77;35.60;;;-4.30;99.90;;;;;;4409586;28;658002;-70
2023/12/09 07:05:50;;;;;;;101.67;32.47;;;-4.30;99.90;;;;;;4434094;28;659184;-71
2023/12/09 07:08:39;;;;;;;89.93;32.03;;;-4.20;99.90;;;;;;4404076;28;658061;-70
2023/12/09 07:11:26;;;;;;;104.67;33.63;;;-4.20;99.90;;;;;;4425654;28;657258;-70
2023/12/09 07:14:15;;;;;;;112.97;35.37;;;-4.20;99.90;;;;;;4410806;28;657798;-71
2023/12/09 07:17:02;;;;;;;107.03;34.40;;;-4.20;99.90;;;;;;4425300;28;657542;-70
2023/12/09 07:19:52;;;;;;;107.33;36.10;;;-4.10;99.90;;;;;;4424302;28;658768;-71
2023/12/09 07:22:39;;;;;;;102.97;33.37;;;-4.00;99.90;;;;;;4406965;28;658653;-71
2023/12/09 07:25:28;;;;;;;117.27;39.23;;;-3.90;99.90;;;;;;4426257;28;656822;-71
2023/12/09 07:28:15;;;;;;;111.53;35.93;;;-3.80;99.90;;;;;;4401865;28;658575;-71
2023/12/09 07:31:03;;;;;;;113.53;37.83;;;-3.70;99.90;;;;;;4409864;28;658509;-71
2023/12/09 07:33:50;;;;;;;104.67;36.50;;;-3.60;99.90;;;;;;4427052;28;657752;-71
2023/12/09 07:36:37;;;;;;;114.38;37.42;;;-3.60;99.90;;;;;;4413498;28;657645;-71
2023/12/09 07:39:25;;;;;;;101.10;35.13;;;-3.60;99.90;;;;;;4431207;28;658188;-71
2023/12/09 07:42:13;;;;;;;98.87;36.67;;;-3.50;99.90;;;;;;4428576;28;658100;-71
2023/12/09 07:45:00;;;;;;;115.77;41.03;;;-3.30;99.90;;;;;;4408795;28;658107;-71
2023/12/09 07:47:47;;;;;;;110.30;37.40;;;-3.30;99.90;;;;;;4406937;28;657978;-70
2023/12/09 07:50:35;;;;;;;92.37;33.53;;;-3.10;99.90;;;;;;4410215;28;657690;-70
2023/12/09 07:53:23;;;;;;;100.90;35.83;;;-2.90;99.90;;;;;;4359691;28;657139;-71
2023/12/09 07:56:10;;;;;;;96.27;36.73;;;-2.70;99.90;;;;;;4332540;28;658184;-70
2023/12/09 07:58:59;;;;;;;101.50;39.60;;;-2.60;99.90;;;;;;4286911;28;656773;-70
2023/12/09 08:01:46;;;;;;;110.00;37.73;;;-2.50;99.90;;;;;;4325093;28;657745;-70
2023/12/09 08:04:33;;;;;;;125.47;45.20;;;-2.40;99.90;;;;;;4370272;28;658042;-71
2023/12/09 08:07:20;;;;;;;110.03;38.07;;;-2.30;99.90;;;;;;4420042;28;658150;-71
2023/12/09 08:10:09;;;;;;;118.97;40.57;;;-2.20;99.90;;;;;;4397167;28;658588;-70
2023/12/09 08:12:56;;;;;;;112.53;41.20;;;-2.00;99.90;;;;;;4349680;28;658920;-70
2023/12/09 08:15:44;;;;;;;106.70;39.43;;;-2.00;99.90;;;;;;4347201;28;657871;-71
2023/12/09 08:18:32;;;;;;;114.23;42.53;;;-1.80;99.90;;;;;;4388249;28;658462;-73
2023/12/09 08:21:19;;;;;;;121.20;44.27;;;-1.70;99.90;;;;;;4403857;28;659389;-71
2023/12/09 08:24:07;;;;;;;120.13;41.70;;;-1.60;99.90;;;;;;4432093;28;657866;-71
2023/12/09 08:26:54;;;;;;;113.33;40.97;;;-1.60;99.90;;;;;;4403037;28;658324;-71
2023/12/09 08:29:41;;;;;;;121.45;43.83;;;-1.50;99.90;;;;;;4425077;28;657933;-72
2023/12/09 08:32:30;;;;;;;120.47;44.30;;;-1.30;99.90;;;;;;4393880;28;657626;-71
2023/12/09 08:35:18;;;;;;;129.45;46.30;;;-1.10;99.90;;;;;;4404163;28;658307;-71
2023/12/09 08:38:05;;;;;;;110.67;41.57;;;-0.80;99.90;;;;;;4421364;28;658695;-71
2023/12/09 08:40:52;;;;;;;106.47;41.57;;;-0.60;99.90;;;;;;4409575;28;658078;-71
2023/12/09 08:43:40;;;;;;;92.80;36.47;;;-0.70;99.90;;;;;;4421792;28;658140;-71
2023/12/09 08:46:27;;;;;;;96.70;36.83;;;-0.80;99.90;;;;;;4420789;28;656604;-71
2023/12/09 08:49:15;;;;;;;92.90;35.70;;;-0.60;99.90;;;;;;4394905;28;657739;-71
2023/12/09 08:52:03;;;;;;;94.87;36.73;;;-0.30;99.90;;;;;;4388821;28;656443;-71
2023/12/09 08:54:50;;;;;;;102.20;38.73;;;-0.20;99.90;;;;;;4418593;28;658340;-71
2023/12/09 08:57:37;;;;;;;95.20;36.37;;;-0.10;99.90;;;;;;4406601;28;658294;-71
2023/12/09 09:00:26;;;;;;;101.27;36.90;;;0.00;99.90;;;;;;4421496;28;657506;-71
2023/12/09 09:03:13;;;;;;;92.27;35.87;;;-0.10;99.90;;;;;;4402263;28;657411;-71
2023/12/09 09:06:02;;;;;;;87.00;34.37;;;-0.10;99.90;;;;;;4422778;28;658028;-71
2023/12/09 09:08:49;;;;;;;94.73;35.07;;;-0.10;99.90;;;;;;4397297;28;657187;-70
2023/12/09 09:11:36;;;;;;;84.07;32.50;;;0.00;99.90;;;;;;4422208;28;656527;-71
2023/12/09 09:14:23;;;;;;;96.97;38.00;;;-0.20;99.90;;;;;;4395189;28;656062;-71
2023/12/09 09:17:12;;;;;;;93.20;35.60;;;-0.20;99.90;;;;;;4422168;28;657658;-70
2023/12/09 09:19:59;;;;;;;102.63;38.10;;;-0.20;99.90;;;;;;4398663;28;656417;-71
2023/12/09 09:22:48;;;;;;;99.67;36.00;;;-0.20;99.90;;;;;;4427007;28;658403;-71
2023/12/09 09:25:35;;;;;;;117.68;43.20;;;-0.40;99.90;;;;;;4404323;28;656815;-71
2023/12/09 09:28:23;;;;;;;104.13;38.60;;;-0.50;99.90;;;;;;4400354;28;657750;-71
2023/12/09 09:31:11;;;;;;;101.30;38.73;;;-0.40;99.90;;;;;;4413062;28;659585;-71
2023/12/09 09:33:59;;;;;;;92.97;33.47;;;-0.30;99.90;;;;;;4398807;28;658171;-71
2023/12/09 09:36:46;;;;;;;93.03;34.90;;;-0.30;99.90;;;;;;4420724;28;657947;-71
2023/12/09 09:39:35;;;;;;;87.03;32.50;;;-0.30;99.90;;;;;;4399902;28;658701;-71
2023/12/09 09:42:25;;;;;;;91.10;32.50;;;-0.20;99.90;;;;;;4422949;28;657372;-71
2023/12/09 09:45:19;;;;;;;71.17;26.17;;;-0.50;99.90;;;;;;4393004;28;656988;-71
2023/12/09 09:48:06;;;;;;;79.47;29.70;;;-0.80;99.90;;;;;;4394768;28;656707;-71
2023/12/09 09:50:53;;;;;;;90.30;32.50;;;-0.90;99.90;;;;;;4400695;28;656904;-71
2023/12/09 09:53:51;;;;;;;81.40;30.00;;;-0.90;99.90;;;;;;4418429;28;657490;-71
2023/12/09 09:56:40;;;;;;;86.30;31.23;;;-0.70;99.90;;;;;;4373879;28;657194;-72
2023/12/09 09:59:27;;;;;;;83.10;32.23;;;-0.60;99.90;;;;;;4418017;28;656656;-71
2023/12/09 10:02:15;;;;;;;85.00;30.80;;;-0.40;99.90;;;;;;4421846;28;657144;-71
2023/12/09 10:05:03;;;;;;;83.47;30.47;;;-0.50;99.90;;;;;;4415805;28;657510;-72
2023/12/09 10:07:50;;;;;;;74.40;28.97;;;-0.40;99.90;;;;;;4432031;28;656843;-72
2023/12/09 10:10:37;;;;;;;71.45;28.52;;;-0.50;99.90;;;;;;4408418;28;657200;-71
2023/12/09 10:13:26;;;;;;;75.27;31.03;;;-0.50;99.90;;;;;;4425731;28;657214;-72
2023/12/09 10:16:13;;;;;;;87.53;31.00;;;-0.40;99.90;;;;;;4403076;28;657001;-71
2023/12/09 10:19:01;;;;;;;86.97;32.53;;;-0.40;99.90;;;;;;4416628;28;657877;-71
2023/12/09 10:21:48;;;;;;;90.50;32.60;;;-0.40;99.90;;;;;;4414237;28;656979;-71
2023/12/09 10:24:35;;;;;;;83.63;32.20;;;-0.50;99.90;;;;;;4430050;28;657351;-70
2023/12/09 10:27:23;;;;;;;94.03;36.37;;;-0.60;99.90;;;;;;4402582;28;657019;-71
2023/12/09 10:30:13;;;;;;;112.23;41.83;;;-0.50;99.90;;;;;;4425750;28;655940;-71
2023/12/09 10:33:00;;;;;;;116.70;41.87;;;-0.50;99.90;;;;;;4403740;28;658586;-71
2023/12/09 10:35:47;;;;;;;109.70;41.50;;;-0.40;99.90;;;;;;4416801;28;658010;-71
2023/12/09 10:38:35;;;;;;;98.97;38.40;;;-0.30;99.90;;;;;;4431294;28;657828;-72
2023/12/09 10:41:23;;;;;;;85.60;34.90;;;-0.30;99.90;;;;;;4423804;28;657029;-72
2023/12/09 10:44:10;;;;;;;87.23;33.33;;;-0.10;99.90;;;;;;4406537;28;656623;-71
2023/12/09 10:46:59;;;;;;;81.33;30.40;;;0.10;99.90;;;;;;4414208;28;656336;-71
2023/12/09 10:49:46;;;;;;;71.13;28.33;;;0.10;99.90;;;;;;4423664;28;656447;-72
2023/12/09 10:52:33;;;;;;;83.37;31.13;;;0.00;99.90;;;;;;4400296;28;656279;-71
2023/12/09 10:55:20;;;;;;;72.83;27.40;;;0.00;99.90;;;;;;4422919;28;656321;-71
2023/12/09 10:58:07;;;;;;;67.22;26.92;;;-0.10;99.90;;;;;;4405987;28;657134;-71
2023/12/09 11:00:56;;;;;;;69.03;27.23;;;-0.20;99.90;;;;;;4427884;28;657523;-71
2023/12/09 11:03:45;;;;;;;83.63;29.43;;;-0.20;99.90;;;;;;4407017;28;656377;-72
2023/12/09 11:06:34;;;;;;;80.50;30.73;;;-0.20;99.90;;;;;;4424740;28;656975;-72
2023/12/09 11:09:21;;;;;;;81.20;30.63;;;-0.20;99.90;;;;;;4428914;28;656671;-71
2023/12/09 11:12:09;;;;;;;82.68;31.83;;;-0.20;99.90;;;;;;4404313;28;656226;-71
2023/12/09 11:14:56;;;;;;;84.63;32.97;;;-0.20;99.90;;;;;;4403012;28;657088;-72
2023/12/09 11:17:44;;;;;;;90.13;32.80;;;-0.10;99.90;;;;;;4390976;28;656762;-71
2023/12/09 11:20:33;;;;;;;86.00;32.60;;;0.00;99.90;;;;;;4409679;28;656332;-72
2023/12/09 11:23:20;;;;;;;93.37;33.50;;;0.20;99.90;;;;;;4387009;28;656970;-71
2023/12/09 11:26:09;;;;;;;89.27;33.03;;;0.10;99.90;;;;;;4399811;28;655598;-71
2023/12/09 11:28:58;;;;;;;107.97;38.97;;;0.20;99.90;;;;;;4411467;28;655782;-71
2023/12/09 11:31:48;;;;;;;108.23;39.17;;;0.20;99.90;;;;;;4386050;28;657012;-71
2023/12/09 11:34:35;;;;;;;70.77;25.50;;;0.20;99.90;;;;;;4389352;28;656478;-71
2023/12/09 11:37:24;;;;;;;93.72;35.75;;;-0.10;99.90;;;;;;4394445;28;655420;-71
2023/12/09 11:40:13;;;;;;;91.15;35.33;;;0.10;99.90;;;;;;4406824;28;657645;-71
2023/12/09 11:43:03;;;;;;;77.17;30.10;;;0.10;99.90;;;;;;4385029;28;657537;-71
2023/12/09 11:45:50;;;;;;;77.67;28.57;;;0.10;99.90;;;;;;4385380;28;656595;-71
2023/12/09 11:48:37;;;;;;;62.47;23.97;;;0.10;99.90;;;;;;4399713;28;656115;-71
2023/12/09 11:51:25;;;;;;;61.13;22.45;;;0.20;99.90;;;;;;4407854;28;656221;-71
2023/12/09 11:54:13;;;;;;;69.00;26.73;;;0.00;99.90;;;;;;4410474;28;656037;-71
2023/12/09 11:57:00;;;;;;;73.93;27.23;;;-0.20;99.90;;;;;;4384957;28;656706;-71
2023/12/09 11:59:48;;;;;;;71.30;25.77;;;-0.20;99.90;;;;;;4385833;28;656400;-71
2023/12/09 12:02:35;;;;;;;70.20;28.73;;;-0.20;99.90;;;;;;4407860;28;657042;-71
2023/12/09 12:05:22;;;;;;;66.33;22.07;;;-0.40;99.90;;;;;;4399265;28;656904;-71
2023/12/09 12:08:15;;;;;;;76.03;28.33;;;-0.20;99.90;;;;;;4411795;28;656426;-71
2023/12/09 12:11:04;;;;;;;69.70;24.53;;;-0.20;99.90;;;;;;4377954;28;657365;-71
2023/12/09 12:13:52;;;;;;;72.38;26.85;;;-0.20;99.90;;;;;;4411216;28;657305;-71
2023/12/09 12:16:39;;;;;;;75.53;28.83;;;-0.30;99.90;;;;;;4406065;28;656554;-71
2023/12/09 12:19:26;;;;;;;41.13;14.13;;;-0.30;99.90;;;;;;4424519;28;658056;-71
2023/12/09 12:22:13;;;;;;;27.87;10.70;;;-0.40;99.90;;;;;;4403458;28;656617;-70
2023/12/09 12:25:01;;;;;;;57.93;23.00;;;-0.50;99.90;;;;;;4421186;28;657308;-71
2023/12/09 12:27:49;;;;;;;78.33;30.87;;;-0.50;99.90;;;;;;4400021;28;657148;-71
2023/12/09 12:30:36;;;;;;;78.45;31.48;;;-0.50;99.90;;;;;;4428088;28;657253;-72
2023/12/09 12:33:24;;;;;;;81.83;30.97;;;-0.40;99.90;;;;;;4401942;28;657344;-70
2023/12/09 12:36:12;;;;;;;62.17;22.47;;;-0.40;99.90;;;;;;4423486;28;657749;-71
2023/12/09 12:38:59;;;;;;;77.40;28.13;;;-0.50;99.90;;;;;;4403955;28;656933;-71
2023/12/09 12:41:46;;;;;;;78.47;28.63;;;-0.50;99.90;;;;;;4421302;28;656469;-71
2023/12/09 12:44:36;;;;;;;90.77;30.20;;;-0.50;99.90;;;;;;4402315;28;657065;-71
2023/12/09 12:47:23;;;;;;;93.17;34.90;;;-0.50;99.90;;;;;;4403190;28;657061;-70
2023/12/09 12:50:10;;;;;;;101.87;38.07;;;-0.40;99.90;;;;;;4431142;28;656702;-71
2023/12/09 12:52:58;;;;;;;110.47;41.37;;;-0.40;99.90;;;;;;4404302;28;657709;-71
2023/12/09 12:55:45;;;;;;;90.70;34.90;;;-0.40;99.90;;;;;;4421816;28;657433;-71
2023/12/09 12:58:32;;;;;;;93.40;36.27;;;-0.30;99.90;;;;;;4393347;28;656991;-71
2023/12/09 13:01:21;;;;;;;94.93;35.53;;;-0.30;99.90;;;;;;4427876;28;657190;-71
2023/12/09 13:04:09;;;;;;;89.10;32.83;;;-0.20;99.90;;;;;;4402608;28;657186;-71
2023/12/09 13:06:56;;;;;;;89.50;32.17;;;-0.10;99.90;;;;;;4419880;28;656830;-71
2023/12/09 13:09:44;;;;;;;90.10;30.27;;;-0.20;99.90;;;;;;4400693;28;656819;-71
2023/12/09 13:12:31;;;;;;;78.87;31.17;;;-0.10;99.90;;;;;;4423809;28;657139;-71
2023/12/09 13:15:18;;;;;;;82.77;32.47;;;-0.20;99.90;;;;;;4405629;28;656880;-71
2023/12/09 13:18:07;;;;;;;82.67;30.43;;;-0.20;99.90;;;;;;4423924;28;658389;-71
2023/12/09 13:20:54;;;;;;;88.23;33.50;;;-0.10;99.90;;;;;;4400413;28;656585;-71
2023/12/09 13:23:41;;;;;;;82.93;31.53;;;-0.20;99.90;;;;;;4421379;28;656802;-71
2023/12/09 13:26:28;;;;;;;82.97;34.43;;;-0.30;99.90;;;;;;4404029;28;658011;-71
2023/12/09 13:29:15;;;;;;;101.07;36.40;;;-0.20;99.90;;;;;;4421625;28;657070;-71
2023/12/09 13:32:04;;;;;;;93.00;35.70;;;-0.20;99.90;;;;;;4400613;28;658400;-70
2023/12/09 13:34:52;;;;;;;103.57;40.93;;;-0.20;99.90;;;;;;4419834;28;656654;-71
2023/12/09 13:37:39;;;;;;;99.63;38.50;;;-0.10;99.90;;;;;;4398153;28;658912;-71
2023/12/09 13:40:27;;;;;;;107.60;41.30;;;-0.10;99.90;;;;;;4428170;28;656622;-71
2023/12/09 13:43:14;;;;;;;106.70;41.27;;;-0.20;99.90;;;;;;4407184;28;658769;-71
2023/12/09 13:46:01;;;;;;;94.60;37.90;;;-0.10;99.90;;;;;;4420742;28;658191;-71
2023/12/09 13:48:48;;;;;;;105.37;39.43;;;-0.20;99.90;;;;;;4403048;28;656333;-71
2023/12/09 13:51:38;;;;;;;117.65;42.67;;;-0.20;99.90;;;;;;4422513;28;657364;-71
2023/12/09 13:54:25;;;;;;;100.77;39.10;;;-0.20;99.90;;;;;;4401017;28;658900;-71
2023/12/09 13:57:12;;;;;;;104.28;39.60;;;-0.20;99.90;;;;;;4407695;28;657522;-71
2023/12/09 14:00:07;;;;;;;102.43;38.67;;;-0.20;99.90;;;;;;4425967;28;658652;-71